sensor_id;sensor_type;location;lat;lon;timestamp;P1;durP1;ratioP1;P2;durP2;ratioP2
3443;SDS011;1736;52.068;6.968;2022-12-18T00:02:00;40.77;;;17.77;;
3443;SDS011;1736;52.068;6.968;2022-12-18T00:04:26;34.60;;;15.57;;
3443;SDS011;1736;52.068;6.968;2022-12-18T00:06:55;38.57;;;15.53;;
3443;SDS011;1736;52.068;6.968;2022-12-18T00:09:21;35.27;;;17.37;;
3443;SDS011;1736;52.068;6.968;2022-12-18T00:11:49;33.67;;;16.87;;
3443;SDS011;1736;52.068;6.968;2022-12-18T00:14:16;35.63;;;15.30;;
3443;SDS011;1736;52.068;6.968;2022-12-18T00:16:43;36.10;;;15.77;;
3443;SDS011;1736;52.068;6.968;2022-12-18T00:19:10;32.67;;;15.50;;
3443;SDS011;1736;52.068;6.968;2022-12-18T00:21:37;35.37;;;16.37;;
3443;SDS011;1736;52.068;6.968;2022-12-18T00:24:06;44.25;;;16.70;;
3443;SDS011;1736;52.068;6.968;2022-12-18T00:26:33;34.63;;;17.83;;
3443;SDS011;1736;52.068;6.968;2022-12-18T00:29:01;34.60;;;15.03;;
3443;SDS011;1736;52.068;6.968;2022-12-18T00:31:30;35.87;;;15.80;;
3443;SDS011;1736;52.068;6.968;2022-12-18T00:33:57;39.20;;;16.47;;
3443;SDS011;1736;52.068;6.968;2022-12-18T00:36:24;36.23;;;16.07;;
3443;SDS011;1736;52.068;6.968;2022-12-18T00:38:52;36.58;;;17.52;;
3443;SDS011;1736;52.068;6.968;2022-12-18T00:41:21;39.67;;;16.20;;
3443;SDS011;1736;52.068;6.968;2022-12-18T00:44:06;37.27;;;17.27;;
3443;SDS011;1736;52.068;6.968;2022-12-18T00:46:35;32.47;;;13.10;;
3443;SDS011;1736;52.068;6.968;2022-12-18T00:49:01;37.35;;;17.58;;
3443;SDS011;1736;52.068;6.968;2022-12-18T00:51:28;34.97;;;16.63;;
3443;SDS011;1736;52.068;6.968;2022-12-18T00:53:55;38.47;;;15.53;;
3443;SDS011;1736;52.068;6.968;2022-12-18T00:56:23;33.47;;;14.97;;
3443;SDS011;1736;52.068;6.968;2022-12-18T00:58:50;31.50;;;15.03;;
3443;SDS011;1736;52.068;6.968;2022-12-18T01:01:17;32.25;;;14.85;;
3443;SDS011;1736;52.068;6.968;2022-12-18T01:03:43;33.83;;;15.00;;
3443;SDS011;1736;52.068;6.968;2022-12-18T01:06:12;31.45;;;15.25;;
3443;SDS011;1736;52.068;6.968;2022-12-18T01:08:40;30.77;;;15.57;;
3443;SDS011;1736;52.068;6.968;2022-12-18T01:11:07;30.85;;;15.18;;
3443;SDS011;1736;52.068;6.968;2022-12-18T01:13:36;31.73;;;15.20;;
3443;SDS011;1736;52.068;6.968;2022-12-18T01:16:02;30.88;;;15.35;;
3443;SDS011;1736;52.068;6.968;2022-12-18T01:18:29;30.83;;;16.08;;
3443;SDS011;1736;52.068;6.968;2022-12-18T01:20:56;37.50;;;16.40;;
3443;SDS011;1736;52.068;6.968;2022-12-18T01:23:22;31.75;;;14.65;;
3443;SDS011;1736;52.068;6.968;2022-12-18T01:25:49;28.77;;;15.30;;
3443;SDS011;1736;52.068;6.968;2022-12-18T01:28:15;31.95;;;14.90;;
3443;SDS011;1736;52.068;6.968;2022-12-18T01:30:43;29.92;;;14.95;;
3443;SDS011;1736;52.068;6.968;2022-12-18T01:33:09;37.20;;;15.35;;
3443;SDS011;1736;52.068;6.968;2022-12-18T01:35:39;31.50;;;15.10;;
3443;SDS011;1736;52.068;6.968;2022-12-18T01:38:07;30.65;;;15.30;;
3443;SDS011;1736;52.068;6.968;2022-12-18T01:40:33;29.95;;;14.60;;
3443;SDS011;1736;52.068;6.968;2022-12-18T01:43:00;37.22;;;14.75;;
3443;SDS011;1736;52.068;6.968;2022-12-18T01:45:27;24.77;;;12.90;;
3443;SDS011;1736;52.068;6.968;2022-12-18T01:47:57;26.23;;;13.30;;
3443;SDS011;1736;52.068;6.968;2022-12-18T01:50:27;29.92;;;13.85;;
3443;SDS011;1736;52.068;6.968;2022-12-18T01:52:58;32.10;;;14.05;;
3443;SDS011;1736;52.068;6.968;2022-12-18T01:55:28;29.93;;;15.10;;
3443;SDS011;1736;52.068;6.968;2022-12-18T01:57:59;27.43;;;14.80;;
3443;SDS011;1736;52.068;6.968;2022-12-18T02:00:26;25.98;;;13.45;;
3443;SDS011;1736;52.068;6.968;2022-12-18T02:02:56;23.98;;;13.80;;
3443;SDS011;1736;52.068;6.968;2022-12-18T02:05:25;26.23;;;12.93;;
3443;SDS011;1736;52.068;6.968;2022-12-18T02:08:01;23.90;;;12.35;;
3443;SDS011;1736;52.068;6.968;2022-12-18T02:10:35;26.58;;;12.55;;
3443;SDS011;1736;52.068;6.968;2022-12-18T02:13:10;25.92;;;12.85;;
3443;SDS011;1736;52.068;6.968;2022-12-18T02:15:42;24.48;;;12.27;;
3443;SDS011;1736;52.068;6.968;2022-12-18T02:18:18;23.65;;;12.70;;
3443;SDS011;1736;52.068;6.968;2022-12-18T02:20:47;24.10;;;12.98;;
3443;SDS011;1736;52.068;6.968;2022-12-18T02:23:24;25.77;;;12.70;;
3443;SDS011;1736;52.068;6.968;2022-12-18T02:26:07;22.05;;;12.15;;
3443;SDS011;1736;52.068;6.968;2022-12-18T02:28:45;21.33;;;12.25;;
3443;SDS011;1736;52.068;6.968;2022-12-18T02:31:16;22.13;;;11.77;;
3443;SDS011;1736;52.068;6.968;2022-12-18T02:33:48;28.73;;;14.13;;
3443;SDS011;1736;52.068;6.968;2022-12-18T02:36:17;24.63;;;13.25;;
3443;SDS011;1736;52.068;6.968;2022-12-18T02:38:46;22.75;;;11.65;;
3443;SDS011;1736;52.068;6.968;2022-12-18T02:41:14;20.77;;;11.60;;
3443;SDS011;1736;52.068;6.968;2022-12-18T02:43:46;26.50;;;12.07;;
3443;SDS011;1736;52.068;6.968;2022-12-18T02:46:23;19.77;;;10.93;;
3443;SDS011;1736;52.068;6.968;2022-12-18T02:48:53;21.88;;;11.60;;
3443;SDS011;1736;52.068;6.968;2022-12-18T02:51:29;22.05;;;11.88;;
3443;SDS011;1736;52.068;6.968;2022-12-18T02:54:06;22.40;;;11.87;;
3443;SDS011;1736;52.068;6.968;2022-12-18T02:56:38;19.42;;;10.85;;
3443;SDS011;1736;52.068;6.968;2022-12-18T02:59:12;20.20;;;11.45;;
3443;SDS011;1736;52.068;6.968;2022-12-18T03:01:42;21.90;;;11.98;;
3443;SDS011;1736;52.068;6.968;2022-12-18T03:04:16;27.08;;;13.07;;
3443;SDS011;1736;52.068;6.968;2022-12-18T03:06:49;25.98;;;11.90;;
3443;SDS011;1736;52.068;6.968;2022-12-18T03:09:19;22.23;;;11.97;;
3443;SDS011;1736;52.068;6.968;2022-12-18T03:11:52;24.70;;;12.23;;
3443;SDS011;1736;52.068;6.968;2022-12-18T03:14:40;33.20;;;13.80;;
3443;SDS011;1736;52.068;6.968;2022-12-18T03:17:11;30.10;;;14.80;;
3443;SDS011;1736;52.068;6.968;2022-12-18T03:19:41;28.77;;;14.10;;
3443;SDS011;1736;52.068;6.968;2022-12-18T03:22:12;23.90;;;12.40;;
3443;SDS011;1736;52.068;6.968;2022-12-18T03:24:41;20.17;;;10.68;;
3443;SDS011;1736;52.068;6.968;2022-12-18T03:27:10;22.38;;;11.73;;
3443;SDS011;1736;52.068;6.968;2022-12-18T03:29:42;22.87;;;10.37;;
3443;SDS011;1736;52.068;6.968;2022-12-18T03:32:15;16.58;;;10.18;;
3443;SDS011;1736;52.068;6.968;2022-12-18T03:34:47;23.52;;;11.63;;
3443;SDS011;1736;52.068;6.968;2022-12-18T03:37:16;23.45;;;11.27;;
3443;SDS011;1736;52.068;6.968;2022-12-18T03:39:45;22.50;;;11.57;;
3443;SDS011;1736;52.068;6.968;2022-12-18T03:42:16;23.63;;;10.68;;
3443;SDS011;1736;52.068;6.968;2022-12-18T03:44:56;22.88;;;10.05;;
3443;SDS011;1736;52.068;6.968;2022-12-18T03:47:29;19.02;;;9.88;;
3443;SDS011;1736;52.068;6.968;2022-12-18T03:50:03;21.63;;;11.95;;
3443;SDS011;1736;52.068;6.968;2022-12-18T03:52:43;15.90;;;9.73;;
3443;SDS011;1736;52.068;6.968;2022-12-18T03:55:16;16.42;;;9.32;;
3443;SDS011;1736;52.068;6.968;2022-12-18T03:57:45;20.65;;;10.57;;
3443;SDS011;1736;52.068;6.968;2022-12-18T04:00:13;25.13;;;10.82;;
3443;SDS011;1736;52.068;6.968;2022-12-18T04:02:44;26.58;;;10.75;;
3443;SDS011;1736;52.068;6.968;2022-12-18T04:05:14;30.80;;;15.13;;
3443;SDS011;1736;52.068;6.968;2022-12-18T04:07:44;27.52;;;15.45;;
3443;SDS011;1736;52.068;6.968;2022-12-18T04:10:13;23.50;;;13.15;;
3443;SDS011;1736;52.068;6.968;2022-12-18T04:12:41;17.60;;;10.18;;
3443;SDS011;1736;52.068;6.968;2022-12-18T04:15:10;18.92;;;9.65;;
3443;SDS011;1736;52.068;6.968;2022-12-18T04:17:37;16.87;;;10.40;;
3443;SDS011;1736;52.068;6.968;2022-12-18T04:20:05;17.58;;;10.13;;
3443;SDS011;1736;52.068;6.968;2022-12-18T04:22:32;17.80;;;10.07;;
3443;SDS011;1736;52.068;6.968;2022-12-18T04:24:58;13.75;;;8.30;;
3443;SDS011;1736;52.068;6.968;2022-12-18T04:27:25;16.00;;;8.52;;
3443;SDS011;1736;52.068;6.968;2022-12-18T04:29:51;14.43;;;8.93;;
3443;SDS011;1736;52.068;6.968;2022-12-18T04:32:19;15.68;;;9.20;;
3443;SDS011;1736;52.068;6.968;2022-12-18T04:34:46;15.23;;;9.27;;
3443;SDS011;1736;52.068;6.968;2022-12-18T04:37:12;16.85;;;8.90;;
3443;SDS011;1736;52.068;6.968;2022-12-18T04:39:39;18.73;;;9.20;;
3443;SDS011;1736;52.068;6.968;2022-12-18T04:42:05;16.90;;;8.83;;
3443;SDS011;1736;52.068;6.968;2022-12-18T04:44:32;19.15;;;9.48;;
3443;SDS011;1736;52.068;6.968;2022-12-18T04:46:59;15.27;;;9.10;;
3443;SDS011;1736;52.068;6.968;2022-12-18T04:49:29;15.23;;;8.88;;
3443;SDS011;1736;52.068;6.968;2022-12-18T04:51:57;12.90;;;7.70;;
3443;SDS011;1736;52.068;6.968;2022-12-18T04:54:24;13.63;;;7.72;;
3443;SDS011;1736;52.068;6.968;2022-12-18T04:56:50;15.82;;;8.45;;
3443;SDS011;1736;52.068;6.968;2022-12-18T04:59:17;14.00;;;9.32;;
3443;SDS011;1736;52.068;6.968;2022-12-18T05:01:44;11.73;;;7.67;;
3443;SDS011;1736;52.068;6.968;2022-12-18T05:04:10;9.43;;;7.20;;
3443;SDS011;1736;52.068;6.968;2022-12-18T05:06:38;13.73;;;7.65;;
3443;SDS011;1736;52.068;6.968;2022-12-18T05:09:05;11.00;;;7.38;;
3443;SDS011;1736;52.068;6.968;2022-12-18T05:11:32;15.33;;;7.80;;
3443;SDS011;1736;52.068;6.968;2022-12-18T05:13:59;12.23;;;7.32;;
3443;SDS011;1736;52.068;6.968;2022-12-18T05:16:25;14.43;;;7.45;;
3443;SDS011;1736;52.068;6.968;2022-12-18T05:18:52;12.35;;;8.00;;
3443;SDS011;1736;52.068;6.968;2022-12-18T05:21:18;11.70;;;7.13;;
3443;SDS011;1736;52.068;6.968;2022-12-18T05:23:46;11.83;;;6.57;;
3443;SDS011;1736;52.068;6.968;2022-12-18T05:26:14;10.73;;;7.63;;
3443;SDS011;1736;52.068;6.968;2022-12-18T05:28:42;14.63;;;7.67;;
3443;SDS011;1736;52.068;6.968;2022-12-18T05:31:12;10.13;;;7.70;;
3443;SDS011;1736;52.068;6.968;2022-12-18T05:33:39;11.88;;;7.13;;
3443;SDS011;1736;52.068;6.968;2022-12-18T05:36:06;11.23;;;6.70;;
3443;SDS011;1736;52.068;6.968;2022-12-18T05:38:35;12.77;;;7.30;;
3443;SDS011;1736;52.068;6.968;2022-12-18T05:41:04;12.13;;;7.37;;
3443;SDS011;1736;52.068;6.968;2022-12-18T05:43:33;12.83;;;6.70;;
3443;SDS011;1736;52.068;6.968;2022-12-18T05:46:02;12.80;;;7.10;;
3443;SDS011;1736;52.068;6.968;2022-12-18T05:48:29;14.23;;;7.20;;
3443;SDS011;1736;52.068;6.968;2022-12-18T05:50:56;17.73;;;7.40;;
3443;SDS011;1736;52.068;6.968;2022-12-18T05:53:29;10.73;;;7.10;;
3443;SDS011;1736;52.068;6.968;2022-12-18T05:55:59;12.67;;;7.90;;
3443;SDS011;1736;52.068;6.968;2022-12-18T05:58:27;11.80;;;7.00;;
3443;SDS011;1736;52.068;6.968;2022-12-18T06:00:57;10.53;;;6.37;;
3443;SDS011;1736;52.068;6.968;2022-12-18T06:03:31;12.60;;;7.37;;
3443;SDS011;1736;52.068;6.968;2022-12-18T06:05:58;11.17;;;6.70;;
3443;SDS011;1736;52.068;6.968;2022-12-18T06:08:24;11.37;;;7.23;;
3443;SDS011;1736;52.068;6.968;2022-12-18T06:10:51;13.27;;;7.53;;
3443;SDS011;1736;52.068;6.968;2022-12-18T06:13:18;11.90;;;7.10;;
3443;SDS011;1736;52.068;6.968;2022-12-18T06:15:46;10.77;;;7.10;;
3443;SDS011;1736;52.068;6.968;2022-12-18T06:18:13;14.80;;;7.47;;
3443;SDS011;1736;52.068;6.968;2022-12-18T06:20:39;12.90;;;7.13;;
3443;SDS011;1736;52.068;6.968;2022-12-18T06:23:06;14.63;;;7.60;;
3443;SDS011;1736;52.068;6.968;2022-12-18T06:25:33;10.23;;;7.00;;
3443;SDS011;1736;52.068;6.968;2022-12-18T06:27:59;9.50;;;6.80;;
3443;SDS011;1736;52.068;6.968;2022-12-18T06:30:26;13.87;;;7.67;;
3443;SDS011;1736;52.068;6.968;2022-12-18T06:32:54;15.23;;;7.50;;
3443;SDS011;1736;52.068;6.968;2022-12-18T06:35:21;13.47;;;7.27;;
3443;SDS011;1736;52.068;6.968;2022-12-18T06:37:48;10.75;;;7.10;;
3443;SDS011;1736;52.068;6.968;2022-12-18T06:40:15;16.57;;;9.13;;
3443;SDS011;1736;52.068;6.968;2022-12-18T06:42:41;11.23;;;7.10;;
3443;SDS011;1736;52.068;6.968;2022-12-18T06:45:08;13.43;;;8.80;;
3443;SDS011;1736;52.068;6.968;2022-12-18T06:47:36;22.27;;;10.37;;
3443;SDS011;1736;52.068;6.968;2022-12-18T06:50:04;14.38;;;8.90;;
3443;SDS011;1736;52.068;6.968;2022-12-18T06:52:31;11.13;;;6.90;;
3443;SDS011;1736;52.068;6.968;2022-12-18T06:54:58;13.47;;;7.70;;
3443;SDS011;1736;52.068;6.968;2022-12-18T06:57:24;15.27;;;7.70;;
3443;SDS011;1736;52.068;6.968;2022-12-18T06:59:51;12.67;;;7.70;;
3443;SDS011;1736;52.068;6.968;2022-12-18T07:02:17;10.20;;;6.67;;
3443;SDS011;1736;52.068;6.968;2022-12-18T07:04:44;10.87;;;7.60;;
3443;SDS011;1736;52.068;6.968;2022-12-18T07:07:12;16.38;;;6.97;;
3443;SDS011;1736;52.068;6.968;2022-12-18T07:09:38;9.60;;;6.38;;
3443;SDS011;1736;52.068;6.968;2022-12-18T07:12:05;11.80;;;7.00;;
3443;SDS011;1736;52.068;6.968;2022-12-18T07:14:32;12.07;;;7.35;;
3443;SDS011;1736;52.068;6.968;2022-12-18T07:16:59;11.65;;;7.15;;
3443;SDS011;1736;52.068;6.968;2022-12-18T07:19:26;18.05;;;8.38;;
3443;SDS011;1736;52.068;6.968;2022-12-18T07:21:52;12.50;;;7.63;;
3443;SDS011;1736;52.068;6.968;2022-12-18T07:24:20;12.00;;;8.02;;
3443;SDS011;1736;52.068;6.968;2022-12-18T07:26:47;14.20;;;8.75;;
3443;SDS011;1736;52.068;6.968;2022-12-18T07:29:14;14.40;;;8.23;;
3443;SDS011;1736;52.068;6.968;2022-12-18T07:31:41;16.75;;;8.68;;
3443;SDS011;1736;52.068;6.968;2022-12-18T07:34:09;14.93;;;9.10;;
3443;SDS011;1736;52.068;6.968;2022-12-18T07:36:36;17.10;;;9.07;;
3443;SDS011;1736;52.068;6.968;2022-12-18T07:39:03;19.77;;;9.60;;
3443;SDS011;1736;52.068;6.968;2022-12-18T07:41:33;13.95;;;8.85;;
3443;SDS011;1736;52.068;6.968;2022-12-18T07:44:00;14.93;;;9.30;;
3443;SDS011;1736;52.068;6.968;2022-12-18T07:46:27;14.33;;;9.03;;
3443;SDS011;1736;52.068;6.968;2022-12-18T07:48:54;18.58;;;9.75;;
3443;SDS011;1736;52.068;6.968;2022-12-18T07:51:20;14.38;;;9.15;;
3443;SDS011;1736;52.068;6.968;2022-12-18T07:53:47;27.00;;;10.60;;
3443;SDS011;1736;52.068;6.968;2022-12-18T07:56:13;14.40;;;8.90;;
3443;SDS011;1736;52.068;6.968;2022-12-18T07:58:41;13.90;;;8.77;;
3443;SDS011;1736;52.068;6.968;2022-12-18T08:01:10;15.27;;;7.83;;
3443;SDS011;1736;52.068;6.968;2022-12-18T08:03:37;10.35;;;7.13;;
3443;SDS011;1736;52.068;6.968;2022-12-18T08:06:06;10.70;;;7.27;;
3443;SDS011;1736;52.068;6.968;2022-12-18T08:08:34;11.80;;;6.50;;
3443;SDS011;1736;52.068;6.968;2022-12-18T08:11:01;11.53;;;7.30;;
3443;SDS011;1736;52.068;6.968;2022-12-18T08:13:28;13.40;;;8.13;;
3443;SDS011;1736;52.068;6.968;2022-12-18T08:15:56;10.33;;;7.00;;
3443;SDS011;1736;52.068;6.968;2022-12-18T08:18:23;11.70;;;6.90;;
3443;SDS011;1736;52.068;6.968;2022-12-18T08:20:50;11.60;;;6.23;;
3443;SDS011;1736;52.068;6.968;2022-12-18T08:23:17;7.20;;;6.00;;
3443;SDS011;1736;52.068;6.968;2022-12-18T08:25:43;8.07;;;6.00;;
3443;SDS011;1736;52.068;6.968;2022-12-18T08:28:10;9.60;;;6.40;;
3443;SDS011;1736;52.068;6.968;2022-12-18T08:30:36;7.73;;;5.53;;
3443;SDS011;1736;52.068;6.968;2022-12-18T08:33:04;10.47;;;6.60;;
3443;SDS011;1736;52.068;6.968;2022-12-18T08:35:34;8.10;;;5.70;;
3443;SDS011;1736;52.068;6.968;2022-12-18T08:38:01;11.53;;;6.93;;
3443;SDS011;1736;52.068;6.968;2022-12-18T08:40:28;9.37;;;6.03;;
3443;SDS011;1736;52.068;6.968;2022-12-18T08:42:54;8.00;;;5.93;;
3443;SDS011;1736;52.068;6.968;2022-12-18T08:45:39;9.40;;;5.63;;
3443;SDS011;1736;52.068;6.968;2022-12-18T08:48:06;11.70;;;6.03;;
3443;SDS011;1736;52.068;6.968;2022-12-18T08:50:33;8.17;;;5.77;;
3443;SDS011;1736;52.068;6.968;2022-12-18T08:53:00;8.20;;;5.40;;
3443;SDS011;1736;52.068;6.968;2022-12-18T08:55:27;8.50;;;6.17;;
3443;SDS011;1736;52.068;6.968;2022-12-18T08:57:53;8.97;;;5.20;;
3443;SDS011;1736;52.068;6.968;2022-12-18T09:00:20;7.50;;;5.27;;
3443;SDS011;1736;52.068;6.968;2022-12-18T09:02:46;11.80;;;5.43;;
3443;SDS011;1736;52.068;6.968;2022-12-18T09:05:14;7.70;;;5.20;;
3443;SDS011;1736;52.068;6.968;2022-12-18T09:07:41;5.67;;;4.77;;
3443;SDS011;1736;52.068;6.968;2022-12-18T09:10:08;7.73;;;5.10;;
3443;SDS011;1736;52.068;6.968;2022-12-18T09:12:35;6.77;;;4.63;;
3443;SDS011;1736;52.068;6.968;2022-12-18T09:15:01;8.50;;;5.87;;
3443;SDS011;1736;52.068;6.968;2022-12-18T09:17:28;9.50;;;5.60;;
3443;SDS011;1736;52.068;6.968;2022-12-18T09:19:55;9.83;;;5.87;;
3443;SDS011;1736;52.068;6.968;2022-12-18T09:22:23;7.70;;;5.47;;
3443;SDS011;1736;52.068;6.968;2022-12-18T09:24:49;8.43;;;5.07;;
3443;SDS011;1736;52.068;6.968;2022-12-18T09:27:16;8.80;;;4.90;;
3443;SDS011;1736;52.068;6.968;2022-12-18T09:29:44;5.70;;;4.50;;
3443;SDS011;1736;52.068;6.968;2022-12-18T09:32:10;8.40;;;5.07;;
3443;SDS011;1736;52.068;6.968;2022-12-18T09:34:37;7.30;;;5.30;;
3443;SDS011;1736;52.068;6.968;2022-12-18T09:37:03;7.07;;;4.80;;
3443;SDS011;1736;52.068;6.968;2022-12-18T09:39:31;6.60;;;5.07;;
3443;SDS011;1736;52.068;6.968;2022-12-18T09:41:58;6.57;;;5.03;;
3443;SDS011;1736;52.068;6.968;2022-12-18T09:44:25;6.80;;;5.50;;
3443;SDS011;1736;52.068;6.968;2022-12-18T09:50:45;7.60;;;5.70;;
3443;SDS011;1736;52.068;6.968;2022-12-18T09:53:14;8.70;;;5.30;;
3443;SDS011;1736;52.068;6.968;2022-12-18T09:55:47;8.30;;;5.83;;
3443;SDS011;1736;52.068;6.968;2022-12-18T09:58:16;7.90;;;6.13;;
3443;SDS011;1736;52.068;6.968;2022-12-18T10:00:50;6.43;;;5.47;;
3443;SDS011;1736;52.068;6.968;2022-12-18T10:03:17;8.20;;;5.37;;
3443;SDS011;1736;52.068;6.968;2022-12-18T10:05:47;8.27;;;5.80;;
3443;SDS011;1736;52.068;6.968;2022-12-18T10:08:22;12.60;;;6.60;;
3443;SDS011;1736;52.068;6.968;2022-12-18T10:10:57;8.73;;;6.10;;
3443;SDS011;1736;52.068;6.968;2022-12-18T10:13:30;8.90;;;6.07;;
3443;SDS011;1736;52.068;6.968;2022-12-18T10:16:03;6.97;;;5.40;;
3443;SDS011;1736;52.068;6.968;2022-12-18T10:21:31;8.73;;;5.53;;
3443;SDS011;1736;52.068;6.968;2022-12-18T10:24:03;10.67;;;6.40;;
3443;SDS011;1736;52.068;6.968;2022-12-18T10:26:42;10.70;;;6.90;;
3443;SDS011;1736;52.068;6.968;2022-12-18T10:29:12;9.53;;;6.30;;
3443;SDS011;1736;52.068;6.968;2022-12-18T10:31:39;8.20;;;5.50;;
3443;SDS011;1736;52.068;6.968;2022-12-18T10:34:09;10.50;;;6.60;;
3443;SDS011;1736;52.068;6.968;2022-12-18T10:36:35;10.87;;;6.93;;
3443;SDS011;1736;52.068;6.968;2022-12-18T10:39:13;9.70;;;6.20;;
3443;SDS011;1736;52.068;6.968;2022-12-18T10:41:43;7.27;;;5.40;;
3443;SDS011;1736;52.068;6.968;2022-12-18T10:44:10;5.97;;;4.80;;
3443;SDS011;1736;52.068;6.968;2022-12-18T10:46:41;8.20;;;5.20;;
3443;SDS011;1736;52.068;6.968;2022-12-18T10:49:18;7.50;;;5.73;;
3443;SDS011;1736;52.068;6.968;2022-12-18T10:51:46;7.63;;;5.30;;
3443;SDS011;1736;52.068;6.968;2022-12-18T10:54:13;6.90;;;5.07;;
3443;SDS011;1736;52.068;6.968;2022-12-18T10:56:43;7.20;;;4.63;;
3443;SDS011;1736;52.068;6.968;2022-12-18T10:59:11;6.37;;;5.00;;
3443;SDS011;1736;52.068;6.968;2022-12-18T11:01:48;7.30;;;5.00;;
3443;SDS011;1736;52.068;6.968;2022-12-18T11:04:18;6.53;;;4.80;;
3443;SDS011;1736;52.068;6.968;2022-12-18T11:06:54;7.80;;;4.97;;
3443;SDS011;1736;52.068;6.968;2022-12-18T11:09:23;6.57;;;5.13;;
3443;SDS011;1736;52.068;6.968;2022-12-18T11:11:53;10.50;;;5.43;;
3443;SDS011;1736;52.068;6.968;2022-12-18T11:14:22;7.03;;;4.90;;
3443;SDS011;1736;52.068;6.968;2022-12-18T11:16:52;8.60;;;5.57;;
3443;SDS011;1736;52.068;6.968;2022-12-18T11:19:22;8.30;;;5.77;;
3443;SDS011;1736;52.068;6.968;2022-12-18T11:21:54;7.63;;;5.00;;
3443;SDS011;1736;52.068;6.968;2022-12-18T11:24:23;6.67;;;4.87;;
3443;SDS011;1736;52.068;6.968;2022-12-18T11:26:56;7.10;;;4.90;;
3443;SDS011;1736;52.068;6.968;2022-12-18T11:29:28;5.47;;;4.43;;
3443;SDS011;1736;52.068;6.968;2022-12-18T11:35:01;6.80;;;5.07;;
3443;SDS011;1736;52.068;6.968;2022-12-18T11:37:35;7.93;;;5.70;;
3443;SDS011;1736;52.068;6.968;2022-12-18T11:40:03;6.63;;;4.63;;
3443;SDS011;1736;52.068;6.968;2022-12-18T11:42:41;9.10;;;5.23;;
3443;SDS011;1736;52.068;6.968;2022-12-18T11:45:23;9.07;;;5.40;;
3443;SDS011;1736;52.068;6.968;2022-12-18T11:47:55;5.47;;;4.87;;
3443;SDS011;1736;52.068;6.968;2022-12-18T11:50:26;5.27;;;4.40;;
3443;SDS011;1736;52.068;6.968;2022-12-18T11:52:58;7.30;;;4.53;;
3443;SDS011;1736;52.068;6.968;2022-12-18T11:55:27;8.37;;;5.50;;
3443;SDS011;1736;52.068;6.968;2022-12-18T11:58:03;7.00;;;5.00;;
3443;SDS011;1736;52.068;6.968;2022-12-18T12:00:40;5.80;;;4.20;;
3443;SDS011;1736;52.068;6.968;2022-12-18T12:03:24;5.77;;;4.57;;
3443;SDS011;1736;52.068;6.968;2022-12-18T12:06:15;6.60;;;5.10;;
3443;SDS011;1736;52.068;6.968;2022-12-18T12:08:52;9.40;;;5.57;;
3443;SDS011;1736;52.068;6.968;2022-12-18T12:11:29;7.90;;;4.87;;
3443;SDS011;1736;52.068;6.968;2022-12-18T12:14:16;7.63;;;5.20;;
3443;SDS011;1736;52.068;6.968;2022-12-18T12:16:53;7.97;;;5.90;;
3443;SDS011;1736;52.068;6.968;2022-12-18T12:19:29;10.13;;;6.13;;
3443;SDS011;1736;52.068;6.968;2022-12-18T12:22:06;10.57;;;6.00;;
3443;SDS011;1736;52.068;6.968;2022-12-18T12:24:41;9.10;;;6.13;;
3443;SDS011;1736;52.068;6.968;2022-12-18T12:27:16;6.57;;;4.43;;
3443;SDS011;1736;52.068;6.968;2022-12-18T12:29:55;6.60;;;5.20;;
3443;SDS011;1736;52.068;6.968;2022-12-18T12:32:32;7.27;;;5.27;;
3443;SDS011;1736;52.068;6.968;2022-12-18T12:35:21;6.50;;;4.80;;
3443;SDS011;1736;52.068;6.968;2022-12-18T12:37:58;7.60;;;4.70;;
3443;SDS011;1736;52.068;6.968;2022-12-18T12:40:32;9.00;;;4.77;;
3443;SDS011;1736;52.068;6.968;2022-12-18T12:43:02;4.67;;;4.23;;
3443;SDS011;1736;52.068;6.968;2022-12-18T12:45:41;8.20;;;5.13;;
3443;SDS011;1736;52.068;6.968;2022-12-18T12:48:17;5.20;;;4.67;;
3443;SDS011;1736;52.068;6.968;2022-12-18T12:50:49;6.80;;;4.80;;
3443;SDS011;1736;52.068;6.968;2022-12-18T12:53:19;7.60;;;4.83;;
3443;SDS011;1736;52.068;6.968;2022-12-18T12:55:52;7.00;;;5.00;;
3443;SDS011;1736;52.068;6.968;2022-12-18T12:58:23;5.10;;;4.60;;
3443;SDS011;1736;52.068;6.968;2022-12-18T13:01:01;8.10;;;4.90;;
3443;SDS011;1736;52.068;6.968;2022-12-18T13:03:36;8.17;;;5.10;;
3443;SDS011;1736;52.068;6.968;2022-12-18T13:06:12;5.93;;;4.63;;
3443;SDS011;1736;52.068;6.968;2022-12-18T13:08:52;15.63;;;8.33;;
3443;SDS011;1736;52.068;6.968;2022-12-18T13:14:30;5.87;;;4.73;;
3443;SDS011;1736;52.068;6.968;2022-12-18T13:17:15;4.93;;;4.30;;
3443;SDS011;1736;52.068;6.968;2022-12-18T13:20:09;6.30;;;4.70;;
3443;SDS011;1736;52.068;6.968;2022-12-18T13:22:39;10.50;;;4.77;;
3443;SDS011;1736;52.068;6.968;2022-12-18T13:25:28;4.60;;;4.20;;
3443;SDS011;1736;52.068;6.968;2022-12-18T13:28:01;6.70;;;4.60;;
3443;SDS011;1736;52.068;6.968;2022-12-18T13:30:41;6.27;;;4.17;;
3443;SDS011;1736;52.068;6.968;2022-12-18T13:36:26;7.17;;;4.23;;
3443;SDS011;1736;52.068;6.968;2022-12-18T13:39:09;6.27;;;4.47;;
3443;SDS011;1736;52.068;6.968;2022-12-18T13:41:49;7.40;;;5.07;;
3443;SDS011;1736;52.068;6.968;2022-12-18T13:44:25;5.93;;;4.70;;
3443;SDS011;1736;52.068;6.968;2022-12-18T13:46:57;5.80;;;4.60;;
3443;SDS011;1736;52.068;6.968;2022-12-18T13:49:28;6.47;;;4.50;;
3443;SDS011;1736;52.068;6.968;2022-12-18T13:52:03;6.53;;;5.33;;
3443;SDS011;1736;52.068;6.968;2022-12-18T13:54:43;7.67;;;5.30;;
3443;SDS011;1736;52.068;6.968;2022-12-18T13:57:24;14.53;;;10.00;;
3443;SDS011;1736;52.068;6.968;2022-12-18T13:59:52;11.40;;;7.70;;
3443;SDS011;1736;52.068;6.968;2022-12-18T14:02:21;17.13;;;10.17;;
3443;SDS011;1736;52.068;6.968;2022-12-18T14:04:50;13.60;;;10.40;;
3443;SDS011;1736;52.068;6.968;2022-12-18T14:07:18;38.03;;;10.70;;
3443;SDS011;1736;52.068;6.968;2022-12-18T14:09:48;17.73;;;11.50;;
3443;SDS011;1736;52.068;6.968;2022-12-18T14:12:17;26.20;;;15.93;;
3443;SDS011;1736;52.068;6.968;2022-12-18T14:15:05;18.00;;;11.70;;
3443;SDS011;1736;52.068;6.968;2022-12-18T14:17:43;23.07;;;14.40;;
3443;SDS011;1736;52.068;6.968;2022-12-18T14:20:14;22.33;;;13.43;;
3443;SDS011;1736;52.068;6.968;2022-12-18T14:22:42;13.37;;;9.40;;
3443;SDS011;1736;52.068;6.968;2022-12-18T14:25:15;23.97;;;10.90;;
3443;SDS011;1736;52.068;6.968;2022-12-18T14:27:44;16.00;;;9.97;;
3443;SDS011;1736;52.068;6.968;2022-12-18T14:33:00;15.63;;;10.70;;
3443;SDS011;1736;52.068;6.968;2022-12-18T14:35:29;15.10;;;10.20;;
3443;SDS011;1736;52.068;6.968;2022-12-18T14:38:08;17.47;;;10.40;;
3443;SDS011;1736;52.068;6.968;2022-12-18T14:40:37;26.10;;;13.83;;
3443;SDS011;1736;52.068;6.968;2022-12-18T14:43:03;15.97;;;9.37;;
3443;SDS011;1736;52.068;6.968;2022-12-18T14:45:34;22.63;;;13.10;;
3443;SDS011;1736;52.068;6.968;2022-12-18T14:48:07;15.50;;;10.90;;
3443;SDS011;1736;52.068;6.968;2022-12-18T14:50:36;22.03;;;9.67;;
3443;SDS011;1736;52.068;6.968;2022-12-18T14:53:02;11.70;;;8.50;;
3443;SDS011;1736;52.068;6.968;2022-12-18T14:55:29;16.87;;;9.13;;
3443;SDS011;1736;52.068;6.968;2022-12-18T14:57:56;13.50;;;8.63;;
3443;SDS011;1736;52.068;6.968;2022-12-18T15:00:25;13.13;;;8.90;;
3443;SDS011;1736;52.068;6.968;2022-12-18T15:02:53;12.80;;;8.80;;
3443;SDS011;1736;52.068;6.968;2022-12-18T15:05:23;10.53;;;7.40;;
3443;SDS011;1736;52.068;6.968;2022-12-18T15:07:54;21.63;;;11.60;;
3443;SDS011;1736;52.068;6.968;2022-12-18T15:10:22;14.80;;;9.60;;
3443;SDS011;1736;52.068;6.968;2022-12-18T15:13:05;15.20;;;10.00;;
3443;SDS011;1736;52.068;6.968;2022-12-18T15:15:45;15.20;;;9.17;;
3443;SDS011;1736;52.068;6.968;2022-12-18T15:18:14;19.03;;;10.10;;
3443;SDS011;1736;52.068;6.968;2022-12-18T15:20:43;18.00;;;11.40;;
3443;SDS011;1736;52.068;6.968;2022-12-18T15:23:15;19.40;;;10.30;;
3443;SDS011;1736;52.068;6.968;2022-12-18T15:25:44;18.57;;;10.97;;
3443;SDS011;1736;52.068;6.968;2022-12-18T15:28:16;20.00;;;12.83;;
3443;SDS011;1736;52.068;6.968;2022-12-18T15:30:58;15.30;;;10.10;;
3443;SDS011;1736;52.068;6.968;2022-12-18T15:33:27;19.93;;;13.17;;
3443;SDS011;1736;52.068;6.968;2022-12-18T15:35:57;25.17;;;13.67;;
3443;SDS011;1736;52.068;6.968;2022-12-18T15:38:26;8.60;;;6.97;;